sensor_id;sensor_type;location;lat;lon;timestamp;temperature;humidity
31819;DHT22;18384;48.860;9.188;2023-12-22T00:00:35;8.70;99.90
31819;DHT22;18384;48.860;9.188;2023-12-22T00:03:01;8.80;99.90
31819;DHT22;18384;48.860;9.188;2023-12-22T00:05:27;8.80;99.90
31819;DHT22;18384;48.860;9.188;2023-12-22T00:07:53;8.80;99.90
31819;DHT22;18384;48.860;9.188;2023-12-22T00:10:21;8.80;99.90
31819;DHT22;18384;48.860;9.188;2023-12-22T00:12:47;8.80;99.90
31819;DHT22;18384;48.860;9.188;2023-12-22T00:15:13;8.80;99.90
31819;DHT22;18384;48.860;9.188;2023-12-22T00:17:39;8.90;99.90
31819;DHT22;18384;48.860;9.188;2023-12-22T00:20:06;7.60;99.90
31819;DHT22;18384;48.860;9.188;2023-12-22T00:22:34;8.80;99.90
31819;DHT22;18384;48.860;9.188;2023-12-22T00:25:00;8.80;99.90
31819;DHT22;18384;48.860;9.188;2023-12-22T00:27:26;8.90;99.90
31819;DHT22;18384;48.860;9.188;2023-12-22T00:29:53;8.90;99.90
31819;DHT22;18384;48.860;9.188;2023-12-22T00:32:19;8.90;99.90
31819;DHT22;18384;48.860;9.188;2023-12-22T00:35:05;8.80;99.90
31819;DHT22;18384;48.860;9.188;2023-12-22T00:37:31;8.70;99.90
31819;DHT22;18384;48.860;9.188;2023-12-22T00:39:57;8.70;99.90
31819;DHT22;18384;48.860;9.188;2023-12-22T00:42:23;8.60;99.90
31819;DHT22;18384;48.860;9.188;2023-12-22T00:44:49;8.60;99.90
31819;DHT22;18384;48.860;9.188;2023-12-22T00:47:15;8.60;99.90
31819;DHT22;18384;48.860;9.188;2023-12-22T00:49:42;8.60;99.90
31819;DHT22;18384;48.860;9.188;2023-12-22T00:52:08;8.60;99.90
31819;DHT22;18384;48.860;9.188;2023-12-22T00:54:34;8.60;99.90
31819;DHT22;18384;48.860;9.188;2023-12-22T00:57:00;8.50;99.90
31819;DHT22;18384;48.860;9.188;2023-12-22T00:59:26;8.40;99.90
31819;DHT22;18384;48.860;9.188;2023-12-22T01:01:52;8.40;99.90
31819;DHT22;18384;48.860;9.188;2023-12-22T01:04:18;8.40;99.90
31819;DHT22;18384;48.860;9.188;2023-12-22T01:06:44;8.40;99.90
31819;DHT22;18384;48.860;9.188;2023-12-22T01:09:10;8.40;99.90
31819;DHT22;18384;48.860;9.188;2023-12-22T01:11:37;8.40;99.90
31819;DHT22;18384;48.860;9.188;2023-12-22T01:14:03;8.40;99.90
31819;DHT22;18384;48.860;9.188;2023-12-22T01:16:29;9.30;99.90
31819;DHT22;18384;48.860;9.188;2023-12-22T01:18:55;8.60;99.90
31819;DHT22;18384;48.860;9.188;2023-12-22T01:21:22;8.60;99.90
31819;DHT22;18384;48.860;9.188;2023-12-22T01:23:48;8.70;99.90
31819;DHT22;18384;48.860;9.188;2023-12-22T01:26:14;8.70;99.90
31819;DHT22;18384;48.860;9.188;2023-12-22T01:28:40;8.70;99.90
31819;DHT22;18384;48.860;9.188;2023-12-22T01:31:06;8.70;99.90
31819;DHT22;18384;48.860;9.188;2023-12-22T01:33:32;8.80;99.90
31819;DHT22;18384;48.860;9.188;2023-12-22T01:35:58;8.80;99.90
31819;DHT22;18384;48.860;9.188;2023-12-22T01:38:25;8.80;99.90
31819;DHT22;18384;48.860;9.188;2023-12-22T01:40:51;8.90;99.90
31819;DHT22;18384;48.860;9.188;2023-12-22T01:43:17;8.80;99.90
31819;DHT22;18384;48.860;9.188;2023-12-22T01:45:56;8.80;99.90
31819;DHT22;18384;48.860;9.188;2023-12-22T01:48:24;8.80;99.90
31819;DHT22;18384;48.860;9.188;2023-12-22T01:50:55;8.80;99.90
31819;DHT22;18384;48.860;9.188;2023-12-22T01:53:23;8.90;99.90
31819;DHT22;18384;48.860;9.188;2023-12-22T01:55:50;8.80;99.90
31819;DHT22;18384;48.860;9.188;2023-12-22T01:58:19;8.80;99.90
31819;DHT22;18384;48.860;9.188;2023-12-22T02:00:45;8.80;99.90
31819;DHT22;18384;48.860;9.188;2023-12-22T02:03:13;8.70;99.90
31819;DHT22;18384;48.860;9.188;2023-12-22T02:05:44;8.80;99.90
31819;DHT22;18384;48.860;9.188;2023-12-22T02:08:11;8.70;99.90
31819;DHT22;18384;48.860;9.188;2023-12-22T02:10:37;8.70;99.90
31819;DHT22;18384;48.860;9.188;2023-12-22T02:13:05;8.60;99.90
31819;DHT22;18384;48.860;9.188;2023-12-22T02:15:32;8.60;99.90
31819;DHT22;18384;48.860;9.188;2023-12-22T02:18:12;8.60;99.90
31819;DHT22;18384;48.860;9.188;2023-12-22T02:20:42;8.60;99.90
31819;DHT22;18384;48.860;9.188;2023-12-22T02:23:10;8.50;99.90
31819;DHT22;18384;48.860;9.188;2023-12-22T02:25:36;8.50;99.90
31819;DHT22;18384;48.860;9.188;2023-12-22T02:28:05;8.50;99.90
31819;DHT22;18384;48.860;9.188;2023-12-22T02:30:57;8.50;99.90
31819;DHT22;18384;48.860;9.188;2023-12-22T02:33:29;8.50;99.90
31819;DHT22;18384;48.860;9.188;2023-12-22T02:36:03;8.50;99.90
31819;DHT22;18384;48.860;9.188;2023-12-22T02:38:30;8.50;99.90
31819;DHT22;18384;48.860;9.188;2023-12-22T02:40:57;8.40;99.90
31819;DHT22;18384;48.860;9.188;2023-12-22T02:43:23;8.40;99.90
31819;DHT22;18384;48.860;9.188;2023-12-22T02:45:50;8.50;99.90
31819;DHT22;18384;48.860;9.188;2023-12-22T02:48:17;8.40;99.90
31819;DHT22;18384;48.860;9.188;2023-12-22T02:50:45;8.40;99.90
31819;DHT22;18384;48.860;9.188;2023-12-22T02:53:11;8.40;99.90
31819;DHT22;18384;48.860;9.188;2023-12-22T02:55:37;8.40;99.90
31819;DHT22;18384;48.860;9.188;2023-12-22T02:58:03;8.40;99.90
31819;DHT22;18384;48.860;9.188;2023-12-22T03:00:29;8.40;99.90
31819;DHT22;18384;48.860;9.188;2023-12-22T03:02:56;8.50;99.90
31819;DHT22;18384;48.860;9.188;2023-12-22T03:05:22;8.50;99.90
31819;DHT22;18384;48.860;9.188;2023-12-22T03:07:48;8.50;99.90
31819;DHT22;18384;48.860;9.188;2023-12-22T03:10:14;8.50;99.90
31819;DHT22;18384;48.860;9.188;2023-12-22T03:12:40;8.50;99.90
31819;DHT22;18384;48.860;9.188;2023-12-22T03:15:07;8.50;99.90
31819;DHT22;18384;48.860;9.188;2023-12-22T03:17:33;8.50;99.90
31819;DHT22;18384;48.860;9.188;2023-12-22T03:20:00;8.50;99.90
31819;DHT22;18384;48.860;9.188;2023-12-22T03:22:26;8.50;99.90
31819;DHT22;18384;48.860;9.188;2023-12-22T03:24:52;8.60;99.90
31819;DHT22;18384;48.860;9.188;2023-12-22T03:27:18;8.60;99.90
31819;DHT22;18384;48.860;9.188;2023-12-22T03:29:45;8.60;99.90
31819;DHT22;18384;48.860;9.188;2023-12-22T03:32:11;8.60;99.60
31819;DHT22;18384;48.860;9.188;2023-12-22T03:34:37;8.70;99.80
31819;DHT22;18384;48.860;9.188;2023-12-22T03:37:04;8.60;99.80
31819;DHT22;18384;48.860;9.188;2023-12-22T03:39:30;8.60;99.20
31819;DHT22;18384;48.860;9.188;2023-12-22T03:41:56;8.70;99.40
31819;DHT22;18384;48.860;9.188;2023-12-22T03:44:22;8.70;99.20
31819;DHT22;18384;48.860;9.188;2023-12-22T03:46:48;8.60;99.10
31819;DHT22;18384;48.860;9.188;2023-12-22T03:49:14;8.60;99.20
31819;DHT22;18384;48.860;9.188;2023-12-22T03:51:41;8.60;99.30
31819;DHT22;18384;48.860;9.188;2023-12-22T03:54:07;8.60;99.60
31819;DHT22;18384;48.860;9.188;2023-12-22T03:56:33;8.60;99.70
31819;DHT22;18384;48.860;9.188;2023-12-22T03:58:59;8.60;99.40
31819;DHT22;18384;48.860;9.188;2023-12-22T04:01:25;8.60;99.40
31819;DHT22;18384;48.860;9.188;2023-12-22T04:03:51;8.60;99.90
31819;DHT22;18384;48.860;9.188;2023-12-22T04:06:18;8.60;99.90
31819;DHT22;18384;48.860;9.188;2023-12-22T04:08:44;8.40;99.90
31819;DHT22;18384;48.860;9.188;2023-12-22T04:11:10;8.30;99.90
31819;DHT22;18384;48.860;9.188;2023-12-22T04:13:36;8.00;99.90
31819;DHT22;18384;48.860;9.188;2023-12-22T04:16:02;7.80;99.90
31819;DHT22;18384;48.860;9.188;2023-12-22T04:18:30;7.70;99.90
31819;DHT22;18384;48.860;9.188;2023-12-22T04:20:57;7.80;99.90
31819;DHT22;18384;48.860;9.188;2023-12-22T04:23:23;7.70;99.90
31819;DHT22;18384;48.860;9.188;2023-12-22T04:25:49;7.80;99.90
31819;DHT22;18384;48.860;9.188;2023-12-22T04:28:16;7.70;99.90
31819;DHT22;18384;48.860;9.188;2023-12-22T04:30:42;7.60;99.90
31819;DHT22;18384;48.860;9.188;2023-12-22T04:33:08;7.60;99.90
31819;DHT22;18384;48.860;9.188;2023-12-22T04:35:34;7.60;99.90
31819;DHT22;18384;48.860;9.188;2023-12-22T04:38:00;7.60;99.90
31819;DHT22;18384;48.860;9.188;2023-12-22T04:40:26;7.70;99.90
31819;DHT22;18384;48.860;9.188;2023-12-22T04:42:53;7.70;99.90
31819;DHT22;18384;48.860;9.188;2023-12-22T04:45:20;7.70;99.90
31819;DHT22;18384;48.860;9.188;2023-12-22T04:47:46;7.70;99.90
31819;DHT22;18384;48.860;9.188;2023-12-22T04:50:12;7.80;99.90
31819;DHT22;18384;48.860;9.188;2023-12-22T04:52:39;7.80;99.90
31819;DHT22;18384;48.860;9.188;2023-12-22T04:55:05;7.90;99.90
31819;DHT22;18384;48.860;9.188;2023-12-22T04:57:31;7.90;99.90
31819;DHT22;18384;48.860;9.188;2023-12-22T04:59:57;7.90;99.90
31819;DHT22;18384;48.860;9.188;2023-12-22T05:02:23;8.00;99.90
31819;DHT22;18384;48.860;9.188;2023-12-22T05:04:50;8.00;99.90
31819;DHT22;18384;48.860;9.188;2023-12-22T05:07:16;8.00;99.90
31819;DHT22;18384;48.860;9.188;2023-12-22T05:09:42;8.00;99.90
31819;DHT22;18384;48.860;9.188;2023-12-22T05:12:09;8.00;99.90
31819;DHT22;18384;48.860;9.188;2023-12-22T05:14:35;8.10;99.90
31819;DHT22;18384;48.860;9.188;2023-12-22T05:17:01;8.10;99.90
31819;DHT22;18384;48.860;9.188;2023-12-22T05:19:27;8.20;99.90
31819;DHT22;18384;48.860;9.188;2023-12-22T05:21:53;8.20;99.90
31819;DHT22;18384;48.860;9.188;2023-12-22T05:24:22;8.20;99.90
31819;DHT22;18384;48.860;9.188;2023-12-22T05:26:48;8.20;99.90
31819;DHT22;18384;48.860;9.188;2023-12-22T05:29:14;8.20;99.90
31819;DHT22;18384;48.860;9.188;2023-12-22T05:31:40;8.20;99.90
31819;DHT22;18384;48.860;9.188;2023-12-22T05:34:06;8.20;99.90
31819;DHT22;18384;48.860;9.188;2023-12-22T05:36:35;8.30;99.90
31819;DHT22;18384;48.860;9.188;2023-12-22T05:39:01;8.20;99.90
31819;DHT22;18384;48.860;9.188;2023-12-22T05:41:28;8.30;99.90
31819;DHT22;18384;48.860;9.188;2023-12-22T05:43:54;8.30;99.90
31819;DHT22;18384;48.860;9.188;2023-12-22T05:46:20;8.30;99.90
31819;DHT22;18384;48.860;9.188;2023-12-22T05:48:46;8.30;99.90
31819;DHT22;18384;48.860;9.188;2023-12-22T05:51:12;8.20;99.90
31819;DHT22;18384;48.860;9.188;2023-12-22T05:53:39;8.30;99.90
31819;DHT22;18384;48.860;9.188;2023-12-22T05:56:17;8.30;99.90
31819;DHT22;18384;48.860;9.188;2023-12-22T05:58:44;8.30;99.90
31819;DHT22;18384;48.860;9.188;2023-12-22T06:01:17;8.30;99.90
31819;DHT22;18384;48.860;9.188;2023-12-22T06:03:45;8.40;99.90
31819;DHT22;18384;48.860;9.188;2023-12-22T06:06:11;8.40;99.90
31819;DHT22;18384;48.860;9.188;2023-12-22T06:08:38;8.40;99.90
31819;DHT22;18384;48.860;9.188;2023-12-22T06:11:04;8.40;99.90
31819;DHT22;18384;48.860;9.188;2023-12-22T06:13:31;8.40;99.80
31819;DHT22;18384;48.860;9.188;2023-12-22T06:15:57;8.50;99.90
31819;DHT22;18384;48.860;9.188;2023-12-22T06:18:23;8.50;99.90
31819;DHT22;18384;48.860;9.188;2023-12-22T06:20:49;8.50;99.90
31819;DHT22;18384;48.860;9.188;2023-12-22T06:23:16;8.50;99.70
31819;DHT22;18384;48.860;9.188;2023-12-22T06:25:42;8.50;99.90
31819;DHT22;18384;48.860;9.188;2023-12-22T06:28:08;8.60;99.90
31819;DHT22;18384;48.860;9.188;2023-12-22T06:30:34;8.60;99.80
31819;DHT22;18384;48.860;9.188;2023-12-22T06:33:01;8.60;99.30
31819;DHT22;18384;48.860;9.188;2023-12-22T06:35:27;8.60;99.60
31819;DHT22;18384;48.860;9.188;2023-12-22T06:37:53;8.60;99.40
31819;DHT22;18384;48.860;9.188;2023-12-22T06:40:21;8.50;99.40
31819;DHT22;18384;48.860;9.188;2023-12-22T06:42:47;8.50;99.40
31819;DHT22;18384;48.860;9.188;2023-12-22T06:45:13;8.60;99.30
31819;DHT22;18384;48.860;9.188;2023-12-22T06:47:39;8.60;99.30
31819;DHT22;18384;48.860;9.188;2023-12-22T06:50:06;8.60;99.40
31819;DHT22;18384;48.860;9.188;2023-12-22T06:52:32;8.60;99.30
31819;DHT22;18384;48.860;9.188;2023-12-22T06:54:58;8.60;99.50
31819;DHT22;18384;48.860;9.188;2023-12-22T06:57:24;8.60;99.00
31819;DHT22;18384;48.860;9.188;2023-12-22T06:59:50;8.60;99.10
31819;DHT22;18384;48.860;9.188;2023-12-22T07:02:17;8.60;99.40
31819;DHT22;18384;48.860;9.188;2023-12-22T07:14:18;8.70;99.30
31819;DHT22;18384;48.860;9.188;2023-12-22T07:16:44;8.70;99.60
31819;DHT22;18384;48.860;9.188;2023-12-22T07:19:10;8.70;99.60
31819;DHT22;18384;48.860;9.188;2023-12-22T07:21:39;8.70;99.70
31819;DHT22;18384;48.860;9.188;2023-12-22T07:24:06;8.70;99.70
31819;DHT22;18384;48.860;9.188;2023-12-22T07:26:32;8.70;99.70
31819;DHT22;18384;48.860;9.188;2023-12-22T07:28:59;8.60;99.80
31819;DHT22;18384;48.860;9.188;2023-12-22T07:31:25;8.60;99.90
31819;DHT22;18384;48.860;9.188;2023-12-22T07:33:51;8.60;99.90
31819;DHT22;18384;48.860;9.188;2023-12-22T07:36:18;8.70;99.90
31819;DHT22;18384;48.860;9.188;2023-12-22T07:38:44;8.70;99.90
31819;DHT22;18384;48.860;9.188;2023-12-22T07:41:10;8.70;99.90
31819;DHT22;18384;48.860;9.188;2023-12-22T07:43:36;8.60;99.90
31819;DHT22;18384;48.860;9.188;2023-12-22T07:46:03;8.70;99.90
31819;DHT22;18384;48.860;9.188;2023-12-22T07:48:29;8.70;99.90
31819;DHT22;18384;48.860;9.188;2023-12-22T07:50:55;8.70;99.90
31819;DHT22;18384;48.860;9.188;2023-12-22T07:53:21;8.70;99.90
31819;DHT22;18384;48.860;9.188;2023-12-22T07:55:47;8.70;99.90
31819;DHT22;18384;48.860;9.188;2023-12-22T07:58:13;8.70;99.90
31819;DHT22;18384;48.860;9.188;2023-12-22T08:00:40;8.70;99.90
31819;DHT22;18384;48.860;9.188;2023-12-22T08:03:06;8.70;99.90
31819;DHT22;18384;48.860;9.188;2023-12-22T08:05:32;8.70;99.90
31819;DHT22;18384;48.860;9.188;2023-12-22T08:07:59;8.70;99.90
31819;DHT22;18384;48.860;9.188;2023-12-22T08:10:25;8.60;99.90
31819;DHT22;18384;48.860;9.188;2023-12-22T08:12:53;8.60;99.90
31819;DHT22;18384;48.860;9.188;2023-12-22T08:15:19;8.60;99.90
31819;DHT22;18384;48.860;9.188;2023-12-22T08:17:48;8.60;99.90
31819;DHT22;18384;48.860;9.188;2023-12-22T08:20:19;8.50;99.90
31819;DHT22;18384;48.860;9.188;2023-12-22T08:22:49;8.50;99.90
31819;DHT22;18384;48.860;9.188;2023-12-22T08:25:16;8.50;99.90
31819;DHT22;18384;48.860;9.188;2023-12-22T08:27:45;8.40;99.90
31819;DHT22;18384;48.860;9.188;2023-12-22T08:30:12;8.40;99.90
31819;DHT22;18384;48.860;9.188;2023-12-22T08:32:40;8.40;99.90
31819;DHT22;18384;48.860;9.188;2023-12-22T08:35:06;8.40;99.90
31819;DHT22;18384;48.860;9.188;2023-12-22T08:37:32;8.30;99.90
31819;DHT22;18384;48.860;9.188;2023-12-22T08:39:59;8.30;99.90
31819;DHT22;18384;48.860;9.188;2023-12-22T08:42:25;8.30;99.90
31819;DHT22;18384;48.860;9.188;2023-12-22T08:44:52;8.20;99.90
31819;DHT22;18384;48.860;9.188;2023-12-22T08:47:18;8.20;99.90
31819;DHT22;18384;48.860;9.188;2023-12-22T08:49:44;8.20;99.90
31819;DHT22;18384;48.860;9.188;2023-12-22T08:52:10;8.20;99.90
31819;DHT22;18384;48.860;9.188;2023-12-22T08:54:37;8.20;99.90
31819;DHT22;18384;48.860;9.188;2023-12-22T08:57:03;8.20;99.90
31819;DHT22;18384;48.860;9.188;2023-12-22T08:59:29;8.20;99.90
31819;DHT22;18384;48.860;9.188;2023-12-22T09:01:55;8.30;99.90
31819;DHT22;18384;48.860;9.188;2023-12-22T09:04:21;8.30;99.90
31819;DHT22;18384;48.860;9.188;2023-12-22T09:06:51;8.30;99.90
31819;DHT22;18384;48.860;9.188;2023-12-22T09:09:17;8.30;99.90
31819;DHT22;18384;48.860;9.188;2023-12-22T09:11:44;8.30;99.90
31819;DHT22;18384;48.860;9.188;2023-12-22T09:14:10;8.30;99.90
31819;DHT22;18384;48.860;9.188;2023-12-22T09:16:37;8.40;99.90
31819;DHT22;18384;48.860;9.188;2023-12-22T09:19:04;8.40;99.90
31819;DHT22;18384;48.860;9.188;2023-12-22T09:21:30;8.40;99.90
31819;DHT22;18384;48.860;9.188;2023-12-22T09:23:56;8.50;99.90
31819;DHT22;18384;48.860;9.188;2023-12-22T09:26:22;8.50;99.90
31819;DHT22;18384;48.860;9.188;2023-12-22T09:28:48;8.50;99.90
31819;DHT22;18384;48.860;9.188;2023-12-22T09:31:14;8.60;99.90
31819;DHT22;18384;48.860;9.188;2023-12-22T09:33:41;8.60;99.90
31819;DHT22;18384;48.860;9.188;2023-12-22T09:36:08;8.60;99.90
31819;DHT22;18384;48.860;9.188;2023-12-22T09:38:34;8.70;99.90
31819;DHT22;18384;48.860;9.188;2023-12-22T09:41:01;8.70;99.90
31819;DHT22;18384;48.860;9.188;2023-12-22T09:43:27;8.70;99.90
31819;DHT22;18384;48.860;9.188;2023-12-22T09:45:54;8.70;99.90
31819;DHT22;18384;48.860;9.188;2023-12-22T09:48:21;8.70;99.90
31819;DHT22;18384;48.860;9.188;2023-12-22T09:50:53;8.80;99.90
31819;DHT22;18384;48.860;9.188;2023-12-22T09:53:20;8.80;99.90
31819;DHT22;18384;48.860;9.188;2023-12-22T09:55:47;8.90;99.90
31819;DHT22;18384;48.860;9.188;2023-12-22T09:58:15;8.90;99.90
31819;DHT22;18384;48.860;9.188;2023-12-22T10:00:43;8.90;99.90
31819;DHT22;18384;48.860;9.188;2023-12-22T10:03:11;8.90;99.90
31819;DHT22;18384;48.860;9.188;2023-12-22T10:05:40;8.90;99.90
31819;DHT22;18384;48.860;9.188;2023-12-22T10:08:07;9.00;99.90
31819;DHT22;18384;48.860;9.188;2023-12-22T10:10:38;9.10;99.80
31819;DHT22;18384;48.860;9.188;2023-12-22T10:13:06;9.00;99.90
31819;DHT22;18384;48.860;9.188;2023-12-22T10:15:39;9.10;99.90
31819;DHT22;18384;48.860;9.188;2023-12-22T10:18:09;9.00;99.70
31819;DHT22;18384;48.860;9.188;2023-12-22T10:20:35;9.10;99.80
31819;DHT22;18384;48.860;9.188;2023-12-22T10:23:01;9.10;99.70
31819;DHT22;18384;48.860;9.188;2023-12-22T10:25:30;9.10;99.40
31819;DHT22;18384;48.860;9.188;2023-12-22T10:27:57;9.10;99.70
31819;DHT22;18384;48.860;9.188;2023-12-22T10:30:23;9.20;99.10
31819;DHT22;18384;48.860;9.188;2023-12-22T10:32:51;9.20;99.10
31819;DHT22;18384;48.860;9.188;2023-12-22T10:35:17;9.20;99.10
31819;DHT22;18384;48.860;9.188;2023-12-22T10:37:45;9.20;99.00
31819;DHT22;18384;48.860;9.188;2023-12-22T10:40:13;9.30;99.20
31819;DHT22;18384;48.860;9.188;2023-12-22T10:42:42;9.20;99.20
31819;DHT22;18384;48.860;9.188;2023-12-22T10:45:08;9.20;99.40
31819;DHT22;18384;48.860;9.188;2023-12-22T10:47:34;9.20;99.40
31819;DHT22;18384;48.860;9.188;2023-12-22T10:50:04;9.30;99.60
31819;DHT22;18384;48.860;9.188;2023-12-22T10:52:30;9.30;99.70
31819;DHT22;18384;48.860;9.188;2023-12-22T10:54:59;9.30;99.70
31819;DHT22;18384;48.860;9.188;2023-12-22T10:57:27;9.30;99.80
31819;DHT22;18384;48.860;9.188;2023-12-22T10:59:53;9.30;99.90
31819;DHT22;18384;48.860;9.188;2023-12-22T11:02:22;9.40;99.90
31819;DHT22;18384;48.860;9.188;2023-12-22T11:05:02;9.40;99.90
31819;DHT22;18384;48.860;9.188;2023-12-22T11:07:33;9.40;99.90
31819;DHT22;18384;48.860;9.188;2023-12-22T11:10:05;9.40;99.90
31819;DHT22;18384;48.860;9.188;2023-12-22T11:12:36;9.40;99.90
31819;DHT22;18384;48.860;9.188;2023-12-22T11:15:04;9.40;99.90
31819;DHT22;18384;48.860;9.188;2023-12-22T11:17:33;9.40;99.90
31819;DHT22;18384;48.860;9.188;2023-12-22T11:20:06;9.30;99.90
31819;DHT22;18384;48.860;9.188;2023-12-22T11:22:36;9.30;99.90
31819;DHT22;18384;48.860;9.188;2023-12-22T11:25:03;9.30;99.90
31819;DHT22;18384;48.860;9.188;2023-12-22T11:27:33;9.30;99.90
31819;DHT22;18384;48.860;9.188;2023-12-22T11:30:01;9.30;99.90
31819;DHT22;18384;48.860;9.188;2023-12-22T11:32:29;9.30;99.90
31819;DHT22;18384;48.860;9.188;2023-12-22T11:34:56;9.30;99.90
31819;DHT22;18384;48.860;9.188;2023-12-22T11:37:23;9.30;99.90
31819;DHT22;18384;48.860;9.188;2023-12-22T11:39:50;9.30;99.90
31819;DHT22;18384;48.860;9.188;2023-12-22T11:42:26;9.30;99.90
31819;DHT22;18384;48.860;9.188;2023-12-22T11:44:54;9.30;99.90
31819;DHT22;18384;48.860;9.188;2023-12-22T11:47:24;9.20;99.90
31819;DHT22;18384;48.860;9.188;2023-12-22T11:49:51;9.30;99.90
31819;DHT22;18384;48.860;9.188;2023-12-22T11:52:18;9.30;99.90
31819;DHT22;18384;48.860;9.188;2023-12-22T11:54:52;9.20;99.90
31819;DHT22;18384;48.860;9.188;2023-12-22T11:57:37;9.20;99.90
31819;DHT22;18384;48.860;9.188;2023-12-22T12:00:09;9.20;99.90
31819;DHT22;18384;48.860;9.188;2023-12-22T12:04:27;9.20;99.90
31819;DHT22;18384;48.860;9.188;2023-12-22T12:06:53;9.20;99.90
31819;DHT22;18384;48.860;9.188;2023-12-22T12:09:45;9.20;99.90
31819;DHT22;18384;48.860;9.188;2023-12-22T12:12:12;9.10;99.90
31819;DHT22;18384;48.860;9.188;2023-12-22T12:14:41;9.10;99.90
31819;DHT22;18384;48.860;9.188;2023-12-22T12:17:09;9.10;99.90
31819;DHT22;18384;48.860;9.188;2023-12-22T12:19:39;9.20;99.90
31819;DHT22;18384;48.860;9.188;2023-12-22T12:22:09;9.20;99.90
31819;DHT22;18384;48.860;9.188;2023-12-22T12:24:38;9.20;99.90
31819;DHT22;18384;48.860;9.188;2023-12-22T12:27:04;9.20;99.90
31819;DHT22;18384;48.860;9.188;2023-12-22T12:29:32;9.20;99.90
31819;DHT22;18384;48.860;9.188;2023-12-22T12:32:05;9.20;99.90
31819;DHT22;18384;48.860;9.188;2023-12-22T12:34:31;9.20;99.90
31819;DHT22;18384;48.860;9.188;2023-12-22T12:36:58;9.20;99.90
31819;DHT22;18384;48.860;9.188;2023-12-22T12:39:30;9.30;99.90
31819;DHT22;18384;48.860;9.188;2023-12-22T12:41:59;9.30;99.90
31819;DHT22;18384;48.860;9.188;2023-12-22T12:44:27;9.30;99.90
31819;DHT22;18384;48.860;9.188;2023-12-22T12:46:55;9.30;99.90
31819;DHT22;18384;48.860;9.188;2023-12-22T12:49:21;9.30;99.90
31819;DHT22;18384;48.860;9.188;2023-12-22T12:51:48;9.30;99.90
31819;DHT22;18384;48.860;9.188;2023-12-22T12:54:15;9.30;99.90
31819;DHT22;18384;48.860;9.188;2023-12-22T12:56:43;9.30;99.90
31819;DHT22;18384;48.860;9.188;2023-12-22T12:59:12;9.40;99.90
31819;DHT22;18384;48.860;9.188;2023-12-22T13:01:43;9.40;99.90
31819;DHT22;18384;48.860;9.188;2023-12-22T13:04:10;9.40;99.90
31819;DHT22;18384;48.860;9.188;2023-12-22T13:06:48;9.40;99.90
31819;DHT22;18384;48.860;9.188;2023-12-22T13:09:15;9.50;99.90
31819;DHT22;18384;48.860;9.188;2023-12-22T13:11:43;9.50;99.90
31819;DHT22;18384;48.860;9.188;2023-12-22T13:14:10;9.60;99.90
31819;DHT22;18384;48.860;9.188;2023-12-22T13:16:40;9.50;99.90
31819;DHT22;18384;48.860;9.188;2023-12-22T13:19:06;9.60;99.90
31819;DHT22;18384;48.860;9.188;2023-12-22T13:21:33;9.70;99.90
31819;DHT22;18384;48.860;9.188;2023-12-22T13:24:12;9.70;99.90
31819;DHT22;18384;48.860;9.188;2023-12-22T13:26:40;9.80;99.90
31819;DHT22;18384;48.860;9.188;2023-12-22T13:29:06;9.80;99.90
31819;DHT22;18384;48.860;9.188;2023-12-22T13:31:32;9.80;99.90
31819;DHT22;18384;48.860;9.188;2023-12-22T13:34:02;9.90;99.90
31819;DHT22;18384;48.860;9.188;2023-12-22T13:36:32;9.90;99.90
31819;DHT22;18384;48.860;9.188;2023-12-22T13:39:00;9.90;99.90
31819;DHT22;18384;48.860;9.188;2023-12-22T13:41:26;9.90;99.90
31819;DHT22;18384;48.860;9.188;2023-12-22T13:43:52;9.90;99.90
31819;DHT22;18384;48.860;9.188;2023-12-22T13:46:26;9.90;99.90
31819;DHT22;18384;48.860;9.188;2023-12-22T13:48:54;9.90;99.90
31819;DHT22;18384;48.860;9.188;2023-12-22T13:51:20;9.90;99.90
31819;DHT22;18384;48.860;9.188;2023-12-22T13:53:47;10.00;99.90
31819;DHT22;18384;48.860;9.188;2023-12-22T13:56:14;9.90;99.90
31819;DHT22;18384;48.860;9.188;2023-12-22T13:58:47;10.00;99.90
31819;DHT22;18384;48.860;9.188;2023-12-22T14:01:14;10.00;99.90
31819;DHT22;18384;48.860;9.188;2023-12-22T14:03:45;10.00;99.90
31819;DHT22;18384;48.860;9.188;2023-12-22T14:06:13;10.00;99.90
31819;DHT22;18384;48.860;9.188;2023-12-22T14:08:40;10.00;99.90
31819;DHT22;18384;48.860;9.188;2023-12-22T14:11:07;10.10;99.90
31819;DHT22;18384;48.860;9.188;2023-12-22T14:13:34;10.00;99.90
31819;DHT22;18384;48.860;9.188;2023-12-22T14:16:06;10.00;99.90
31819;DHT22;18384;48.860;9.188;2023-12-22T14:18:32;10.00;99.90
31819;DHT22;18384;48.860;9.188;2023-12-22T14:20:58;10.00;99.90
31819;DHT22;18384;48.860;9.188;2023-12-22T14:23:25;10.00;99.90
31819;DHT22;18384;48.860;9.188;2023-12-22T14:25:51;10.00;99.90
31819;DHT22;18384;48.860;9.188;2023-12-22T14:28:17;10.00;99.90
31819;DHT22;18384;48.860;9.188;2023-12-22T14:30:43;10.00;99.90
31819;DHT22;18384;48.860;9.188;2023-12-22T14:33:09;10.00;99.90
31819;DHT22;18384;48.860;9.188;2023-12-22T14:35:38;10.00;99.90
31819;DHT22;18384;48.860;9.188;2023-12-22T14:38:04;10.00;99.90
31819;DHT22;18384;48.860;9.188;2023-12-22T14:40:30;10.10;99.90
31819;DHT22;18384;48.860;9.188;2023-12-22T14:42:56;10.00;99.90
31819;DHT22;18384;48.860;9.188;2023-12-22T14:45:24;10.10;99.90
31819;DHT22;18384;48.860;9.188;2023-12-22T14:47:50;10.10;99.90
31819;DHT22;18384;48.860;9.188;2023-12-22T14:50:19;10.10;99.90
31819;DHT22;18384;48.860;9.188;2023-12-22T14:52:45;10.10;99.90
31819;DHT22;18384;48.860;9.188;2023-12-22T14:55:11;10.10;99.90
31819;DHT22;18384;48.860;9.188;2023-12-22T14:57:38;10.10;99.90
31819;DHT22;18384;48.860;9.188;2023-12-22T15:00:05;10.10;99.90
31819;DHT22;18384;48.860;9.188;2023-12-22T15:02:32;10.10;99.90
31819;DHT22;18384;48.860;9.188;2023-12-22T15:04:58;10.10;99.90
31819;DHT22;18384;48.860;9.188;2023-12-22T15:07:24;10.10;99.90
31819;DHT22;18384;48.860;9.188;2023-12-22T15:09:50;10.00;99.90
31819;DHT22;18384;48.860;9.188;2023-12-22T15:12:16;10.00;99.90
31819;DHT22;18384;48.860;9.188;2023-12-22T15:14:46;10.00;99.90
31819;DHT22;18384;48.860;9.188;2023-12-22T15:17:13;10.00;99.90
31819;DHT22;18384;48.860;9.188;2023-12-22T15:19:41;10.00;99.90
31819;DHT22;18384;48.860;9.188;2023-12-22T15:22:11;9.90;99.90
31819;DHT22;18384;48.860;9.188;2023-12-22T15:24:41;10.00;99.90
31819;DHT22;18384;48.860;9.188;2023-12-22T15:27:12;10.00;99.90
31819;DHT22;18384;48.860;9.188;2023-12-22T15:29:38;10.00;99.90
31819;DHT22;18384;48.860;9.188;2023-12-22T15:32:04;10.00;99.90
31819;DHT22;18384;48.860;9.188;2023-12-22T15:34:31;10.00;99.90
31819;DHT22;18384;48.860;9.188;2023-12-22T15:36:57;10.00;99.90
31819;DHT22;18384;48.860;9.188;2023-12-22T15:39:23;10.00;99.90
31819;DHT22;18384;48.860;9.188;2023-12-22T15:41:49;9.90;99.90
31819;DHT22;18384;48.860;9.188;2023-12-22T15:44:15;10.00;99.90
31819;DHT22;18384;48.860;9.188;2023-12-22T15:46:41;9.90;99.90
31819;DHT22;18384;48.860;9.188;2023-12-22T15:49:08;10.00;99.90
31819;DHT22;18384;48.860;9.188;2023-12-22T15:51:34;10.00;99.90
31819;DHT22;18384;48.860;9.188;2023-12-22T15:54:00;10.00;99.90
31819;DHT22;18384;48.860;9.188;2023-12-22T15:56:28;9.90;99.90